Etusivu
METAR-TAF:

METAR-TAF

Lentoasemat :

Sotilaslentoasema

Linköping, Ruotsi

Leveyspiiri: 58-24N, Pituuspiiri: 015-31E, korkeus merenpinnasta: 93 m

Tämänhetkinen sää

Tämä raportti tehtiin 10 minuuttia sitten, kello 12.20 UTC
Tuuli 11 kn lännestä/lounaasta
Lämpötila 13°C
Kosteus 58%
Ilmanpaine 1001 hPa
Näkyvyys 10 km tai enemmän

METAR: ESCF 231220Z AUTO 25011KT 9999 FEW080/// 13/05 Q1001

Aika: 14:30 (12:30 UTC)


TAF: puuttuu

Säähavainnot ja -ennusteet yli 4000 lentoasemalta (METAR- ja TAF-raportit).

Käytössä olevat sääasemat on merkitty karttaan keltaisilla ja punaisilla pisteillä.

Aseta hiiri pisteen päälle nähdäksesi sääaseman nimen.

Klikkaa sitten nähdäksesi säähavainnot ja -ennusteet.

Kartan vaihtaminen: klikkaa mustalla rastilla varustettuja vihreitä pisteitä, niin voit zoomata sisään; viivalla varustettua vihreää pistettä, niin voit zoomata ulos tai vihreitä nuolia, niin pääset viereisille kartoille.


METAR-TAF: